sensor_id;sensor_type;location;lat;lon;timestamp;temperature;humidity
54431;DHT22;40342;52.998;5.862;2022-10-16T00:01:11;12.40;99.90
54431;DHT22;40342;52.998;5.862;2022-10-16T00:03:38;12.40;99.90
54431;DHT22;40342;52.998;5.862;2022-10-16T00:06:04;12.40;99.90
54431;DHT22;40342;52.998;5.862;2022-10-16T00:08:31;12.30;99.90
54431;DHT22;40342;52.998;5.862;2022-10-16T00:11:11;12.40;99.90
54431;DHT22;40342;52.998;5.862;2022-10-16T00:13:39;12.30;99.90
54431;DHT22;40342;52.998;5.862;2022-10-16T00:16:05;12.40;99.90
54431;DHT22;40342;52.998;5.862;2022-10-16T00:18:31;12.40;99.90
54431;DHT22;40342;52.998;5.862;2022-10-16T00:21:02;12.40;99.90
54431;DHT22;40342;52.998;5.862;2022-10-16T00:23:28;12.40;99.90
54431;DHT22;40342;52.998;5.862;2022-10-16T00:25:55;12.40;99.90
54431;DHT22;40342;52.998;5.862;2022-10-16T00:28:21;12.40;99.90
54431;DHT22;40342;52.998;5.862;2022-10-16T00:30:47;12.50;99.90
54431;DHT22;40342;52.998;5.862;2022-10-16T00:33:12;12.40;99.90
54431;DHT22;40342;52.998;5.862;2022-10-16T00:35:38;12.50;99.90
54431;DHT22;40342;52.998;5.862;2022-10-16T00:38:03;12.50;99.90
54431;DHT22;40342;52.998;5.862;2022-10-16T00:40:29;12.50;99.90
54431;DHT22;40342;52.998;5.862;2022-10-16T00:42:54;12.50;99.90
54431;DHT22;40342;52.998;5.862;2022-10-16T00:45:20;12.50;99.90
54431;DHT22;40342;52.998;5.862;2022-10-16T00:47:47;12.60;99.90
54431;DHT22;40342;52.998;5.862;2022-10-16T00:52:48;12.60;99.90
54431;DHT22;40342;52.998;5.862;2022-10-16T00:55:15;12.60;99.90
54431;DHT22;40342;52.998;5.862;2022-10-16T00:57:42;12.70;99.90
54431;DHT22;40342;52.998;5.862;2022-10-16T01:00:14;12.70;99.90
54431;DHT22;40342;52.998;5.862;2022-10-16T01:02:41;12.70;99.90
54431;DHT22;40342;52.998;5.862;2022-10-16T01:05:07;12.70;99.90
54431;DHT22;40342;52.998;5.862;2022-10-16T01:08:37;12.70;99.90
54431;DHT22;40342;52.998;5.862;2022-10-16T01:10:50;12.70;99.90
54431;DHT22;40342;52.998;5.862;2022-10-16T01:13:41;12.70;99.90
54431;DHT22;40342;52.998;5.862;2022-10-16T01:16:27;12.70;99.90
54431;DHT22;40342;52.998;5.862;2022-10-16T01:21:46;12.70;99.90
54431;DHT22;40342;52.998;5.862;2022-10-16T01:24:47;12.70;99.90
54431;DHT22;40342;52.998;5.862;2022-10-16T01:27:26;12.70;99.90
54431;DHT22;40342;52.998;5.862;2022-10-16T01:32:37;12.70;99.90
54431;DHT22;40342;52.998;5.862;2022-10-16T01:35:17;12.70;99.90
54431;DHT22;40342;52.998;5.862;2022-10-16T01:37:56;12.70;99.90
54431;DHT22;40342;52.998;5.862;2022-10-16T01:40:26;12.70;99.90
54431;DHT22;40342;52.998;5.862;2022-10-16T01:43:02;12.70;99.90
54431;DHT22;40342;52.998;5.862;2022-10-16T01:45:31;12.60;99.90
54431;DHT22;40342;52.998;5.862;2022-10-16T01:47:59;12.60;99.90
54431;DHT22;40342;52.998;5.862;2022-10-16T01:50:26;12.60;99.90
54431;DHT22;40342;52.998;5.862;2022-10-16T01:52:55;12.60;99.90
54431;DHT22;40342;52.998;5.862;2022-10-16T01:55:29;12.60;99.90
54431;DHT22;40342;52.998;5.862;2022-10-16T01:57:57;12.60;99.90
54431;DHT22;40342;52.998;5.862;2022-10-16T02:00:26;12.60;99.90
54431;DHT22;40342;52.998;5.862;2022-10-16T02:02:53;12.60;99.90
54431;DHT22;40342;52.998;5.862;2022-10-16T02:05:28;12.60;99.90
54431;DHT22;40342;52.998;5.862;2022-10-16T02:07:54;12.60;99.90
54431;DHT22;40342;52.998;5.862;2022-10-16T02:10:20;12.60;99.90
54431;DHT22;40342;52.998;5.862;2022-10-16T02:13:24;12.60;99.90
54431;DHT22;40342;52.998;5.862;2022-10-16T02:15:41;12.60;99.90
54431;DHT22;40342;52.998;5.862;2022-10-16T02:18:08;12.60;99.90
54431;DHT22;40342;52.998;5.862;2022-10-16T02:20:41;12.60;99.90
54431;DHT22;40342;52.998;5.862;2022-10-16T02:23:12;12.60;99.90
54431;DHT22;40342;52.998;5.862;2022-10-16T02:25:44;12.50;99.90
54431;DHT22;40342;52.998;5.862;2022-10-16T02:28:21;12.50;99.90
54431;DHT22;40342;52.998;5.862;2022-10-16T02:30:56;12.50;99.90
54431;DHT22;40342;52.998;5.862;2022-10-16T02:33:25;12.50;99.90
54431;DHT22;40342;52.998;5.862;2022-10-16T02:35:52;12.50;99.90
54431;DHT22;40342;52.998;5.862;2022-10-16T02:38:20;12.50;99.90
54431;DHT22;40342;52.998;5.862;2022-10-16T02:40:46;12.50;99.90
54431;DHT22;40342;52.998;5.862;2022-10-16T02:43:12;12.50;99.90
54431;DHT22;40342;52.998;5.862;2022-10-16T02:45:38;12.40;99.90
54431;DHT22;40342;52.998;5.862;2022-10-16T02:48:04;12.40;99.90
54431;DHT22;40342;52.998;5.862;2022-10-16T02:50:29;12.40;99.90
54431;DHT22;40342;52.998;5.862;2022-10-16T02:52:55;12.40;99.90
54431;DHT22;40342;52.998;5.862;2022-10-16T02:55:21;12.40;99.90
54431;DHT22;40342;52.998;5.862;2022-10-16T02:57:47;12.40;99.90
54431;DHT22;40342;52.998;5.862;2022-10-16T03:00:14;12.40;99.90
54431;DHT22;40342;52.998;5.862;2022-10-16T03:02:40;12.40;99.90
54431;DHT22;40342;52.998;5.862;2022-10-16T03:05:07;12.40;99.90
54431;DHT22;40342;52.998;5.862;2022-10-16T03:07:33;12.30;99.90
54431;DHT22;40342;52.998;5.862;2022-10-16T03:09:58;12.40;99.90
54431;DHT22;40342;52.998;5.862;2022-10-16T03:12:26;12.30;99.90
54431;DHT22;40342;52.998;5.862;2022-10-16T03:14:52;12.40;99.90
54431;DHT22;40342;52.998;5.862;2022-10-16T03:17:18;12.30;99.90
54431;DHT22;40342;52.998;5.862;2022-10-16T03:19:43;12.30;99.90
54431;DHT22;40342;52.998;5.862;2022-10-16T03:22:09;12.30;99.90
54431;DHT22;40342;52.998;5.862;2022-10-16T03:24:35;12.40;99.90
54431;DHT22;40342;52.998;5.862;2022-10-16T03:27:00;12.40;99.90
54431;DHT22;40342;52.998;5.862;2022-10-16T03:29:26;12.40;99.90
54431;DHT22;40342;52.998;5.862;2022-10-16T03:31:52;12.40;99.90
54431;DHT22;40342;52.998;5.862;2022-10-16T03:34:18;12.40;99.90
54431;DHT22;40342;52.998;5.862;2022-10-16T03:36:44;12.40;99.90
54431;DHT22;40342;52.998;5.862;2022-10-16T03:39:09;12.40;99.90
54431;DHT22;40342;52.998;5.862;2022-10-16T03:41:35;12.40;99.90
54431;DHT22;40342;52.998;5.862;2022-10-16T03:44:00;12.40;99.90
54431;DHT22;40342;52.998;5.862;2022-10-16T03:46:26;12.40;99.90
54431;DHT22;40342;52.998;5.862;2022-10-16T03:48:51;12.40;99.90
54431;DHT22;40342;52.998;5.862;2022-10-16T03:51:17;12.40;99.90
54431;DHT22;40342;52.998;5.862;2022-10-16T03:53:42;12.40;99.90
54431;DHT22;40342;52.998;5.862;2022-10-16T03:56:08;12.40;99.90
54431;DHT22;40342;52.998;5.862;2022-10-16T03:58:34;12.40;99.90
54431;DHT22;40342;52.998;5.862;2022-10-16T04:00:59;12.40;99.90
54431;DHT22;40342;52.998;5.862;2022-10-16T04:03:25;12.50;99.90
54431;DHT22;40342;52.998;5.862;2022-10-16T04:05:50;12.40;99.90
54431;DHT22;40342;52.998;5.862;2022-10-16T04:08:16;12.40;99.90
54431;DHT22;40342;52.998;5.862;2022-10-16T04:10:45;12.50;99.90
54431;DHT22;40342;52.998;5.862;2022-10-16T04:13:11;12.40;99.90
54431;DHT22;40342;52.998;5.862;2022-10-16T04:15:37;12.40;99.90
54431;DHT22;40342;52.998;5.862;2022-10-16T04:18:03;12.50;99.90
54431;DHT22;40342;52.998;5.862;2022-10-16T04:20:29;12.50;99.90
54431;DHT22;40342;52.998;5.862;2022-10-16T04:22:55;12.60;99.90
54431;DHT22;40342;52.998;5.862;2022-10-16T04:25:21;12.60;99.90
54431;DHT22;40342;52.998;5.862;2022-10-16T04:27:46;12.60;99.90
54431;DHT22;40342;52.998;5.862;2022-10-16T04:30:12;12.70;99.90
54431;DHT22;40342;52.998;5.862;2022-10-16T04:32:38;12.70;99.90
54431;DHT22;40342;52.998;5.862;2022-10-16T04:35:04;12.70;99.90
54431;DHT22;40342;52.998;5.862;2022-10-16T04:37:29;12.70;99.90
54431;DHT22;40342;52.998;5.862;2022-10-16T04:39:55;12.80;99.90
54431;DHT22;40342;52.998;5.862;2022-10-16T04:42:21;12.70;99.90
54431;DHT22;40342;52.998;5.862;2022-10-16T04:44:47;12.70;99.90
54431;DHT22;40342;52.998;5.862;2022-10-16T04:47:13;12.70;99.90
54431;DHT22;40342;52.998;5.862;2022-10-16T04:49:38;12.70;99.90
54431;DHT22;40342;52.998;5.862;2022-10-16T04:52:04;12.80;99.90
54431;DHT22;40342;52.998;5.862;2022-10-16T04:54:30;12.70;99.90
54431;DHT22;40342;52.998;5.862;2022-10-16T04:56:55;12.70;99.90
54431;DHT22;40342;52.998;5.862;2022-10-16T04:59:21;12.70;99.90
54431;DHT22;40342;52.998;5.862;2022-10-16T05:01:47;12.80;99.90
54431;DHT22;40342;52.998;5.862;2022-10-16T05:04:13;12.80;99.90
54431;DHT22;40342;52.998;5.862;2022-10-16T05:06:40;12.70;99.90
54431;DHT22;40342;52.998;5.862;2022-10-16T05:09:06;12.70;99.90
54431;DHT22;40342;52.998;5.862;2022-10-16T05:11:32;12.80;99.90
54431;DHT22;40342;52.998;5.862;2022-10-16T05:13:58;12.80;99.90
54431;DHT22;40342;52.998;5.862;2022-10-16T05:16:23;12.80;99.90
54431;DHT22;40342;52.998;5.862;2022-10-16T05:18:49;12.70;99.90
54431;DHT22;40342;52.998;5.862;2022-10-16T05:21:16;12.80;99.90
54431;DHT22;40342;52.998;5.862;2022-10-16T05:23:41;12.80;99.90
54431;DHT22;40342;52.998;5.862;2022-10-16T05:26:07;12.80;99.90
54431;DHT22;40342;52.998;5.862;2022-10-16T05:28:33;12.80;99.90
54431;DHT22;40342;52.998;5.862;2022-10-16T05:30:58;12.90;99.90
54431;DHT22;40342;52.998;5.862;2022-10-16T05:33:25;12.80;99.90
54431;DHT22;40342;52.998;5.862;2022-10-16T05:35:51;12.90;99.90
54431;DHT22;40342;52.998;5.862;2022-10-16T05:38:17;12.90;99.90
54431;DHT22;40342;52.998;5.862;2022-10-16T05:40:43;12.80;99.90
54431;DHT22;40342;52.998;5.862;2022-10-16T05:43:09;12.90;99.90
54431;DHT22;40342;52.998;5.862;2022-10-16T05:45:34;12.90;99.90
54431;DHT22;40342;52.998;5.862;2022-10-16T05:48:00;12.90;99.90
54431;DHT22;40342;52.998;5.862;2022-10-16T05:50:26;12.90;99.90
54431;DHT22;40342;52.998;5.862;2022-10-16T05:52:52;12.90;99.90
54431;DHT22;40342;52.998;5.862;2022-10-16T05:55:18;12.90;99.90
54431;DHT22;40342;52.998;5.862;2022-10-16T05:57:43;12.90;99.90
54431;DHT22;40342;52.998;5.862;2022-10-16T06:00:09;13.00;99.90
54431;DHT22;40342;52.998;5.862;2022-10-16T06:02:35;13.00;99.90
54431;DHT22;40342;52.998;5.862;2022-10-16T06:05:00;13.00;99.90
54431;DHT22;40342;52.998;5.862;2022-10-16T06:07:26;13.00;99.90
54431;DHT22;40342;52.998;5.862;2022-10-16T06:09:52;13.00;99.90
54431;DHT22;40342;52.998;5.862;2022-10-16T06:12:18;13.10;99.90
54431;DHT22;40342;52.998;5.862;2022-10-16T06:14:45;13.10;99.90
54431;DHT22;40342;52.998;5.862;2022-10-16T06:17:12;13.00;99.90
54431;DHT22;40342;52.998;5.862;2022-10-16T06:19:38;13.10;99.90
54431;DHT22;40342;52.998;5.862;2022-10-16T06:22:04;13.10;99.90
54431;DHT22;40342;52.998;5.862;2022-10-16T06:24:30;13.10;99.90
54431;DHT22;40342;52.998;5.862;2022-10-16T06:26:55;13.10;99.90
54431;DHT22;40342;52.998;5.862;2022-10-16T06:29:21;13.10;99.90
54431;DHT22;40342;52.998;5.862;2022-10-16T06:31:46;13.10;99.90
54431;DHT22;40342;52.998;5.862;2022-10-16T06:34:12;13.10;99.90
54431;DHT22;40342;52.998;5.862;2022-10-16T06:36:39;13.10;99.90
54431;DHT22;40342;52.998;5.862;2022-10-16T06:39:05;13.00;99.90
54431;DHT22;40342;52.998;5.862;2022-10-16T06:41:33;13.00;99.90
54431;DHT22;40342;52.998;5.862;2022-10-16T06:43:59;13.00;99.90
54431;DHT22;40342;52.998;5.862;2022-10-16T06:46:25;13.00;99.90
54431;DHT22;40342;52.998;5.862;2022-10-16T06:48:51;13.00;99.90
54431;DHT22;40342;52.998;5.862;2022-10-16T06:51:21;13.00;99.90
54431;DHT22;40342;52.998;5.862;2022-10-16T06:53:50;12.90;99.90
54431;DHT22;40342;52.998;5.862;2022-10-16T06:56:24;12.90;99.90
54431;DHT22;40342;52.998;5.862;2022-10-16T06:58:50;12.90;99.90
54431;DHT22;40342;52.998;5.862;2022-10-16T07:01:18;12.90;99.90
54431;DHT22;40342;52.998;5.862;2022-10-16T07:03:45;12.90;99.90
54431;DHT22;40342;52.998;5.862;2022-10-16T07:06:13;12.90;99.90
54431;DHT22;40342;52.998;5.862;2022-10-16T07:08:41;12.90;99.90
54431;DHT22;40342;52.998;5.862;2022-10-16T07:11:12;12.90;99.90
54431;DHT22;40342;52.998;5.862;2022-10-16T07:13:40;12.90;99.90
54431;DHT22;40342;52.998;5.862;2022-10-16T07:16:20;12.90;99.90
54431;DHT22;40342;52.998;5.862;2022-10-16T07:18:47;12.90;99.90
54431;DHT22;40342;52.998;5.862;2022-10-16T07:21:21;12.90;99.90
54431;DHT22;40342;52.998;5.862;2022-10-16T07:23:51;12.90;99.90
54431;DHT22;40342;52.998;5.862;2022-10-16T07:26:17;13.00;99.90
54431;DHT22;40342;52.998;5.862;2022-10-16T07:28:43;13.00;99.90
54431;DHT22;40342;52.998;5.862;2022-10-16T07:31:11;13.10;99.90
54431;DHT22;40342;52.998;5.862;2022-10-16T07:33:37;13.10;99.90
54431;DHT22;40342;52.998;5.862;2022-10-16T07:36:04;13.10;99.90
54431;DHT22;40342;52.998;5.862;2022-10-16T07:38:29;13.10;99.90
54431;DHT22;40342;52.998;5.862;2022-10-16T07:40:59;13.20;99.90
54431;DHT22;40342;52.998;5.862;2022-10-16T07:43:26;13.20;99.90
54431;DHT22;40342;52.998;5.862;2022-10-16T07:45:52;13.20;99.90
54431;DHT22;40342;52.998;5.862;2022-10-16T07:48:18;13.20;99.90
54431;DHT22;40342;52.998;5.862;2022-10-16T07:50:44;13.20;99.90
54431;DHT22;40342;52.998;5.862;2022-10-16T07:53:11;13.20;99.90
54431;DHT22;40342;52.998;5.862;2022-10-16T07:55:36;13.30;99.90
54431;DHT22;40342;52.998;5.862;2022-10-16T07:58:02;13.30;99.90
54431;DHT22;40342;52.998;5.862;2022-10-16T08:00:28;13.30;99.90
54431;DHT22;40342;52.998;5.862;2022-10-16T08:02:53;13.40;99.90
54431;DHT22;40342;52.998;5.862;2022-10-16T08:05:19;13.50;99.90
54431;DHT22;40342;52.998;5.862;2022-10-16T08:07:49;13.50;99.90
54431;DHT22;40342;52.998;5.862;2022-10-16T08:10:19;13.50;99.90
54431;DHT22;40342;52.998;5.862;2022-10-16T08:12:45;13.60;99.90
54431;DHT22;40342;52.998;5.862;2022-10-16T08:15:11;13.60;99.90
54431;DHT22;40342;52.998;5.862;2022-10-16T08:17:37;13.60;99.90
54431;DHT22;40342;52.998;5.862;2022-10-16T08:20:03;13.60;99.90
54431;DHT22;40342;52.998;5.862;2022-10-16T08:22:28;13.60;99.90
54431;DHT22;40342;52.998;5.862;2022-10-16T08:24:54;13.70;99.90
54431;DHT22;40342;52.998;5.862;2022-10-16T08:27:20;13.70;99.90
54431;DHT22;40342;52.998;5.862;2022-10-16T08:29:45;13.70;99.90
54431;DHT22;40342;52.998;5.862;2022-10-16T08:32:11;13.70;99.90
54431;DHT22;40342;52.998;5.862;2022-10-16T08:34:37;13.70;99.90
54431;DHT22;40342;52.998;5.862;2022-10-16T08:37:02;13.80;99.90
54431;DHT22;40342;52.998;5.862;2022-10-16T08:39:28;13.80;99.90
54431;DHT22;40342;52.998;5.862;2022-10-16T08:45:15;13.80;99.90
54431;DHT22;40342;52.998;5.862;2022-10-16T08:47:49;13.90;99.90
54431;DHT22;40342;52.998;5.862;2022-10-16T08:50:24;13.90;99.90
54431;DHT22;40342;52.998;5.862;2022-10-16T08:52:51;13.90;99.90
54431;DHT22;40342;52.998;5.862;2022-10-16T08:55:30;13.90;99.90
54431;DHT22;40342;52.998;5.862;2022-10-16T08:57:58;13.90;99.90
54431;DHT22;40342;52.998;5.862;2022-10-16T09:00:24;14.00;99.90
54431;DHT22;40342;52.998;5.862;2022-10-16T09:03:36;14.00;99.90
54431;DHT22;40342;52.998;5.862;2022-10-16T09:09:01;14.10;99.90
54431;DHT22;40342;52.998;5.862;2022-10-16T09:14:35;14.20;99.90
54431;DHT22;40342;52.998;5.862;2022-10-16T09:22:53;14.40;99.90
54431;DHT22;40342;52.998;5.862;2022-10-16T09:25:22;14.60;99.90
54431;DHT22;40342;52.998;5.862;2022-10-16T09:27:48;14.70;99.90
54431;DHT22;40342;52.998;5.862;2022-10-16T09:30:19;14.90;99.90
54431;DHT22;40342;52.998;5.862;2022-10-16T09:32:47;14.90;99.90
54431;DHT22;40342;52.998;5.862;2022-10-16T09:35:16;15.00;99.90
54431;DHT22;40342;52.998;5.862;2022-10-16T09:37:44;15.10;99.90
54431;DHT22;40342;52.998;5.862;2022-10-16T09:40:25;15.20;99.90
54431;DHT22;40342;52.998;5.862;2022-10-16T09:42:58;15.30;99.90
54431;DHT22;40342;52.998;5.862;2022-10-16T09:45:26;15.40;99.90
54431;DHT22;40342;52.998;5.862;2022-10-16T09:47:52;15.40;99.90
54431;DHT22;40342;52.998;5.862;2022-10-16T09:50:26;15.50;99.90
54431;DHT22;40342;52.998;5.862;2022-10-16T09:53:08;15.50;99.90
54431;DHT22;40342;52.998;5.862;2022-10-16T09:55:35;15.60;99.90
54431;DHT22;40342;52.998;5.862;2022-10-16T09:58:01;15.70;99.90
54431;DHT22;40342;52.998;5.862;2022-10-16T10:00:26;15.70;99.90
54431;DHT22;40342;52.998;5.862;2022-10-16T10:02:53;15.80;99.90
54431;DHT22;40342;52.998;5.862;2022-10-16T10:05:27;15.80;99.90
54431;DHT22;40342;52.998;5.862;2022-10-16T10:07:58;15.90;99.90
54431;DHT22;40342;52.998;5.862;2022-10-16T10:10:30;16.00;99.90
54431;DHT22;40342;52.998;5.862;2022-10-16T10:12:57;16.00;99.90
54431;DHT22;40342;52.998;5.862;2022-10-16T10:15:23;16.10;99.90
54431;DHT22;40342;52.998;5.862;2022-10-16T10:17:53;16.10;99.90
54431;DHT22;40342;52.998;5.862;2022-10-16T10:20:33;16.20;99.90
54431;DHT22;40342;52.998;5.862;2022-10-16T10:23:01;16.10;99.90
54431;DHT22;40342;52.998;5.862;2022-10-16T10:25:54;16.20;99.90
54431;DHT22;40342;52.998;5.862;2022-10-16T10:28:32;16.30;99.90
54431;DHT22;40342;52.998;5.862;2022-10-16T10:31:14;16.40;99.90
54431;DHT22;40342;52.998;5.862;2022-10-16T10:36:33;16.40;99.90
54431;DHT22;40342;52.998;5.862;2022-10-16T10:44:36;16.50;99.90
54431;DHT22;40342;52.998;5.862;2022-10-16T10:47:16;16.50;99.90
54431;DHT22;40342;52.998;5.862;2022-10-16T10:50:23;16.60;99.90
54431;DHT22;40342;52.998;5.862;2022-10-16T10:53:06;16.70;99.90
54431;DHT22;40342;52.998;5.862;2022-10-16T10:55:59;16.80;99.90
54431;DHT22;40342;52.998;5.862;2022-10-16T10:58:49;17.00;99.90
54431;DHT22;40342;52.998;5.862;2022-10-16T11:06:50;17.20;99.90
54431;DHT22;40342;52.998;5.862;2022-10-16T11:12:09;17.30;99.90
54431;DHT22;40342;52.998;5.862;2022-10-16T11:17:49;17.20;99.90
54431;DHT22;40342;52.998;5.862;2022-10-16T11:20:25;17.00;99.90
54431;DHT22;40342;52.998;5.862;2022-10-16T11:22:55;16.80;99.90
54431;DHT22;40342;52.998;5.862;2022-10-16T11:25:30;16.60;99.90
54431;DHT22;40342;52.998;5.862;2022-10-16T11:28:19;16.70;99.90
54431;DHT22;40342;52.998;5.862;2022-10-16T11:31:29;16.80;99.90
54431;DHT22;40342;52.998;5.862;2022-10-16T11:33:47;17.00;99.90
54431;DHT22;40342;52.998;5.862;2022-10-16T11:39:13;17.30;99.90
54431;DHT22;40342;52.998;5.862;2022-10-16T11:42:08;17.30;99.90
54431;DHT22;40342;52.998;5.862;2022-10-16T11:49:53;17.40;99.90
54431;DHT22;40342;52.998;5.862;2022-10-16T11:52:41;17.40;99.90
54431;DHT22;40342;52.998;5.862;2022-10-16T11:55:36;17.40;99.90
54431;DHT22;40342;52.998;5.862;2022-10-16T11:58:22;17.50;99.90
54431;DHT22;40342;52.998;5.862;2022-10-16T12:09:02;17.70;99.90
54431;DHT22;40342;52.998;5.862;2022-10-16T12:16:30;17.80;99.90
54431;DHT22;40342;52.998;5.862;2022-10-16T12:19:14;17.90;99.90
54431;DHT22;40342;52.998;5.862;2022-10-16T12:21:41;17.90;99.90
54431;DHT22;40342;52.998;5.862;2022-10-16T12:24:06;17.90;99.90
54431;DHT22;40342;52.998;5.862;2022-10-16T12:26:46;17.90;99.90
54431;DHT22;40342;52.998;5.862;2022-10-16T12:29:22;17.80;99.90
54431;DHT22;40342;52.998;5.862;2022-10-16T12:31:49;17.80;99.90
54431;DHT22;40342;52.998;5.862;2022-10-16T12:34:37;17.80;99.90
54431;DHT22;40342;52.998;5.862;2022-10-16T12:37:24;17.80;99.90
54431;DHT22;40342;52.998;5.862;2022-10-16T12:39:52;17.90;99.90
54431;DHT22;40342;52.998;5.862;2022-10-16T12:42:38;17.90;99.90
54431;DHT22;40342;52.998;5.862;2022-10-16T12:47:53;17.80;99.90
54431;DHT22;40342;52.998;5.862;2022-10-16T12:50:36;17.70;99.90
54431;DHT22;40342;52.998;5.862;2022-10-16T12:53:17;17.50;99.90
54431;DHT22;40342;52.998;5.862;2022-10-16T12:58:33;17.30;99.90
54431;DHT22;40342;52.998;5.862;2022-10-16T13:01:29;17.20;99.90
54431;DHT22;40342;52.998;5.862;2022-10-16T13:06:39;17.00;99.90
54431;DHT22;40342;52.998;5.862;2022-10-16T13:14:45;17.00;99.90
54431;DHT22;40342;52.998;5.862;2022-10-16T13:23:17;17.10;99.90
54431;DHT22;40342;52.998;5.862;2022-10-16T13:25:55;17.20;99.90
54431;DHT22;40342;52.998;5.862;2022-10-16T13:28:30;17.10;99.90
54431;DHT22;40342;52.998;5.862;2022-10-16T13:30:58;17.10;99.90
54431;DHT22;40342;52.998;5.862;2022-10-16T13:33:33;17.00;99.90
54431;DHT22;40342;52.998;5.862;2022-10-16T13:36:00;17.00;99.90
54431;DHT22;40342;52.998;5.862;2022-10-16T13:38:28;17.00;99.90
54431;DHT22;40342;52.998;5.862;2022-10-16T13:41:00;17.10;99.90
54431;DHT22;40342;52.998;5.862;2022-10-16T13:43:48;17.20;99.90
54431;DHT22;40342;52.998;5.862;2022-10-16T13:46:17;17.30;99.90
54431;DHT22;40342;52.998;5.862;2022-10-16T13:48:44;17.30;99.90
54431;DHT22;40342;52.998;5.862;2022-10-16T13:51:17;17.40;99.90
54431;DHT22;40342;52.998;5.862;2022-10-16T13:53:44;17.50;99.90
54431;DHT22;40342;52.998;5.862;2022-10-16T13:56:19;17.50;99.90
54431;DHT22;40342;52.998;5.862;2022-10-16T13:58:45;17.50;99.90
54431;DHT22;40342;52.998;5.862;2022-10-16T14:01:23;17.50;99.90
54431;DHT22;40342;52.998;5.862;2022-10-16T14:03:51;17.60;99.90
54431;DHT22;40342;52.998;5.862;2022-10-16T14:06:21;17.60;99.90
54431;DHT22;40342;52.998;5.862;2022-10-16T14:09:01;17.70;99.90
54431;DHT22;40342;52.998;5.862;2022-10-16T14:11:27;17.80;99.90
54431;DHT22;40342;52.998;5.862;2022-10-16T14:13:54;17.70;99.90
54431;DHT22;40342;52.998;5.862;2022-10-16T14:16:29;17.60;99.90
54431;DHT22;40342;52.998;5.862;2022-10-16T14:19:01;17.50;99.90
54431;DHT22;40342;52.998;5.862;2022-10-16T14:21:28;17.30;99.90
54431;DHT22;40342;52.998;5.862;2022-10-16T14:23:54;17.20;99.90
54431;DHT22;40342;52.998;5.862;2022-10-16T14:26:24;17.10;99.90
54431;DHT22;40342;52.998;5.862;2022-10-16T14:29:08;17.00;99.90
54431;DHT22;40342;52.998;5.862;2022-10-16T14:31:35;17.00;99.90
54431;DHT22;40342;52.998;5.862;2022-10-16T14:34:02;16.80;99.90
54431;DHT22;40342;52.998;5.862;2022-10-16T14:36:29;16.80;99.90
54431;DHT22;40342;52.998;5.862;2022-10-16T14:39:02;16.70;99.90
54431;DHT22;40342;52.998;5.862;2022-10-16T14:41:40;16.60;99.90
54431;DHT22;40342;52.998;5.862;2022-10-16T14:44:09;16.50;99.90
54431;DHT22;40342;52.998;5.862;2022-10-16T14:46:37;16.50;99.90
54431;DHT22;40342;52.998;5.862;2022-10-16T14:51:36;16.40;99.90
54431;DHT22;40342;52.998;5.862;2022-10-16T14:54:03;16.30;99.90
54431;DHT22;40342;52.998;5.862;2022-10-16T14:56:48;16.30;99.90
54431;DHT22;40342;52.998;5.862;2022-10-16T15:01:49;16.20;99.90
54431;DHT22;40342;52.998;5.862;2022-10-16T15:04:15;16.20;99.90
54431;DHT22;40342;52.998;5.862;2022-10-16T15:06:41;16.10;99.90
54431;DHT22;40342;52.998;5.862;2022-10-16T15:09:07;16.10;99.90
54431;DHT22;40342;52.998;5.862;2022-10-16T15:11:33;16.10;99.90
54431;DHT22;40342;52.998;5.862;2022-10-16T15:13:59;16.10;99.90
54431;DHT22;40342;52.998;5.862;2022-10-16T15:16:25;16.10;99.90
54431;DHT22;40342;52.998;5.862;2022-10-16T15:18:51;16.00;99.90
54431;DHT22;40342;52.998;5.862;2022-10-16T15:21:29;16.00;99.90
54431;DHT22;40342;52.998;5.862;2022-10-16T15:23:56;16.00;99.90
54431;DHT22;40342;52.998;5.862;2022-10-16T15:26:26;15.90;99.90
54431;DHT22;40342;52.998;5.862;2022-10-16T15:28:52;15.90;99.90
54431;DHT22;40342;52.998;5.862;2022-10-16T15:31:18;15.90;99.90
54431;DHT22;40342;52.998;5.862;2022-10-16T15:33:44;15.80;99.90
54431;DHT22;40342;52.998;5.862;2022-10-16T15:36:13;15.80;99.90
54431;DHT22;40342;52.998;5.862;2022-10-16T15:38:38;15.80;99.90
54431;DHT22;40342;52.998;5.862;2022-10-16T15:41:04;15.70;99.90
54431;DHT22;40342;52.998;5.862;2022-10-16T15:43:29;15.70;99.90
54431;DHT22;40342;52.998;5.862;2022-10-16T15:46:01;15.60;99.90
54431;DHT22;40342;52.998;5.862;2022-10-16T15:48:27;15.60;99.90
54431;DHT22;40342;52.998;5.862;2022-10-16T15:50:53;15.50;99.90
54431;DHT22;40342;52.998;5.862;2022-10-16T15:53:19;15.50;99.90
54431;DHT22;40342;52.998;5.862;2022-10-16T15:55:44;15.40;99.90
54431;DHT22;40342;52.998;5.862;2022-10-16T15:58:10;15.30;99.90
54431;DHT22;40342;52.998;5.862;2022-10-16T16:00:35;15.30;99.90
54431;DHT22;40342;52.998;5.862;2022-10-16T16:03:01;15.30;99.90
54431;DHT22;40342;52.998;5.862;2022-10-16T16:05:27;15.10;99.90
54431;DHT22;40342;52.998;5.862;2022-10-16T16:07:53;15.10;99.90
54431;DHT22;40342;52.998;5.862;2022-10-16T16:10:18;15.10;99.90
54431;DHT22;40342;52.998;5.862;2022-10-16T16:12:47;15.00;99.90
54431;DHT22;40342;52.998;5.862;2022-10-16T16:15:17;14.90;99.90
54431;DHT22;40342;52.998;5.862;2022-10-16T16:17:43;14.90;99.90
54431;DHT22;40342;52.998;5.862;2022-10-16T16:20:09;14.80;99.90
54431;DHT22;40342;52.998;5.862;2022-10-16T16:22:35;14.80;99.90
54431;DHT22;40342;52.998;5.862;2022-10-16T16:25:01;14.80;99.90
54431;DHT22;40342;52.998;5.862;2022-10-16T16:27:27;14.70;99.90
54431;DHT22;40342;52.998;5.862;2022-10-16T16:29:55;14.70;99.90
54431;DHT22;40342;52.998;5.862;2022-10-16T16:32:20;14.60;99.90
54431;DHT22;40342;52.998;5.862;2022-10-16T16:34:46;14.60;99.90
54431;DHT22;40342;52.998;5.862;2022-10-16T16:37:12;14.60;99.90
54431;DHT22;40342;52.998;5.862;2022-10-16T16:39:37;14.50;99.90
54431;DHT22;40342;52.998;5.862;2022-10-16T16:42:03;14.50;99.90
54431;DHT22;40342;52.998;5.862;2022-10-16T16:44:30;14.50;99.90
54431;DHT22;40342;52.998;5.862;2022-10-16T16:46:56;14.50;99.90
54431;DHT22;40342;52.998;5.862;2022-10-16T16:49:21;14.50;99.90
54431;DHT22;40342;52.998;5.862;2022-10-16T16:51:47;14.40;99.90
54431;DHT22;40342;52.998;5.862;2022-10-16T16:54:13;14.40;99.90
54431;DHT22;40342;52.998;5.862;2022-10-16T16:56:39;14.40;99.90
54431;DHT22;40342;52.998;5.862;2022-10-16T16:59:12;14.30;99.90
54431;DHT22;40342;52.998;5.862;2022-10-16T17:01:39;14.30;99.90
54431;DHT22;40342;52.998;5.862;2022-10-16T17:04:05;14.30;99.90
54431;DHT22;40342;52.998;5.862;2022-10-16T17:06:31;14.30;99.90
54431;DHT22;40342;52.998;5.862;2022-10-16T17:08:57;14.20;99.90
54431;DHT22;40342;52.998;5.862;2022-10-16T17:11:25;14.20;99.90
54431;DHT22;40342;52.998;5.862;2022-10-16T17:13:52;14.20;99.90